Beecher City, Illinois
Current Conditions -  °F | °C
As of 8:55 AM on Monday 24 Nov 2014 (Local Time) from K1H2 Reporting Station
Overcast Overcast  
Wind Chill: 29°   Ceiling: 1800
Heat Index: 39°   Visibility: 10mi
Dew Point: 32°   Wind: 22mph
Humidity: 76%   Direction: 250°WSW
Pressure: 29.55"   Gusts: 29mph
Location:  39.19°N, 88.79°W
Report Text: K1H2 241455Z AUTO 25019G25KT 10SM OVC018 04/00 A2955 RMK AO2 T00380000
Loading
Personal Weather Stations






























Interactive Weather Map New forecast layout! Learn more

10-Day Weather Forecast

Advertisements
Track Severe Weather on mobile